Terminal Aerodrome Forecast
Issued by NWS Bismarck, ND

Home | Current Version | Previous Version | Text Only | Print | Product List | Glossary Off
Versions: 1 2 3 4 5 6 7 8 9 10 11 12 13 14 15 16 17 18 19 20 21 22

000
FTUS43 KBIS 220800 AAA
TAFBIS
TAF AMD
KBIS 220859Z 2209/2306 32008KT P6SM BKN015
      TEMPO 2209/2212 4SM BR SCT007 BKN015
     FM221700 02008KT P6SM SCT040=

USA.gov is the U.S. government's official web portal to all federal, state and local government web resources and services.